sensor_id;sensor_type;location;lat;lon;timestamp;P1;durP1;ratioP1;P2;durP2;ratioP2
42682;SDS011;28293;50.930;3.464;2022-10-16T14:26:19;7.75;;;1.67;;
42682;SDS011;28293;50.930;3.464;2022-10-16T14:28:47;5.03;;;1.38;;
42682;SDS011;28293;50.930;3.464;2022-10-16T14:31:25;4.70;;;1.73;;
42682;SDS011;28293;50.930;3.464;2022-10-16T14:33:58;5.55;;;1.40;;
42682;SDS011;28293;50.930;3.464;2022-10-16T14:36:25;6.07;;;1.60;;
42682;SDS011;28293;50.930;3.464;2022-10-16T14:39:05;5.82;;;1.50;;
42682;SDS011;28293;50.930;3.464;2022-10-16T14:41:46;6.38;;;1.50;;
42682;SDS011;28293;50.930;3.464;2022-10-16T14:44:13;3.75;;;1.55;;
42682;SDS011;28293;50.930;3.464;2022-10-16T14:46:40;6.72;;;1.70;;
42682;SDS011;28293;50.930;3.464;2022-10-16T14:51:41;4.70;;;1.95;;
42682;SDS011;28293;50.930;3.464;2022-10-16T14:54:09;5.15;;;1.33;;
42682;SDS011;28293;50.930;3.464;2022-10-16T14:56:44;6.32;;;1.80;;
42682;SDS011;28293;50.930;3.464;2022-10-16T15:01:56;3.67;;;1.60;;
42682;SDS011;28293;50.930;3.464;2022-10-16T15:04:22;4.80;;;1.42;;
42682;SDS011;28293;50.930;3.464;2022-10-16T15:06:48;5.13;;;1.60;;
42682;SDS011;28293;50.930;3.464;2022-10-16T15:09:13;3.63;;;1.27;;
42682;SDS011;28293;50.930;3.464;2022-10-16T15:11:39;5.82;;;1.95;;
42682;SDS011;28293;50.930;3.464;2022-10-16T15:14:06;4.20;;;1.63;;
42682;SDS011;28293;50.930;3.464;2022-10-16T15:16:36;6.00;;;1.90;;
42682;SDS011;28293;50.930;3.464;2022-10-16T15:19:01;7.60;;;2.92;;
42682;SDS011;28293;50.930;3.464;2022-10-16T15:21:28;8.98;;;3.58;;
42682;SDS011;28293;50.930;3.464;2022-10-16T15:23:56;9.38;;;4.97;;
42682;SDS011;28293;50.930;3.464;2022-10-16T15:26:26;11.95;;;6.90;;
42682;SDS011;28293;50.930;3.464;2022-10-16T15:28:53;14.88;;;8.73;;
42682;SDS011;28293;50.930;3.464;2022-10-16T15:31:19;12.20;;;6.65;;
42682;SDS011;28293;50.930;3.464;2022-10-16T15:33:49;9.02;;;4.38;;
42682;SDS011;28293;50.930;3.464;2022-10-16T15:36:30;9.95;;;4.45;;
42682;SDS011;28293;50.930;3.464;2022-10-16T15:38:59;10.43;;;3.28;;
42682;SDS011;28293;50.930;3.464;2022-10-16T15:41:25;6.70;;;2.30;;
42682;SDS011;28293;50.930;3.464;2022-10-16T15:43:51;6.43;;;2.25;;
42682;SDS011;28293;50.930;3.464;2022-10-16T15:46:18;7.55;;;2.25;;
42682;SDS011;28293;50.930;3.464;2022-10-16T15:48:44;6.22;;;2.50;;
42682;SDS011;28293;50.930;3.464;2022-10-16T15:51:10;6.05;;;2.50;;
42682;SDS011;28293;50.930;3.464;2022-10-16T15:53:36;6.18;;;2.67;;
42682;SDS011;28293;50.930;3.464;2022-10-16T15:56:02;10.27;;;3.90;;
42682;SDS011;28293;50.930;3.464;2022-10-16T15:58:31;8.70;;;3.42;;
42682;SDS011;28293;50.930;3.464;2022-10-16T16:00:58;8.68;;;3.65;;
42682;SDS011;28293;50.930;3.464;2022-10-16T16:03:26;7.68;;;3.20;;
42682;SDS011;28293;50.930;3.464;2022-10-16T16:05:52;8.82;;;2.95;;
42682;SDS011;28293;50.930;3.464;2022-10-16T16:08:18;6.13;;;2.53;;
42682;SDS011;28293;50.930;3.464;2022-10-16T16:10:44;7.13;;;2.60;;
42682;SDS011;28293;50.930;3.464;2022-10-16T16:13:10;6.28;;;2.58;;
42682;SDS011;28293;50.930;3.464;2022-10-16T16:15:38;5.25;;;2.20;;
42682;SDS011;28293;50.930;3.464;2022-10-16T16:18:05;6.95;;;2.40;;
42682;SDS011;28293;50.930;3.464;2022-10-16T16:20:31;6.57;;;2.30;;
42682;SDS011;28293;50.930;3.464;2022-10-16T16:22:57;6.05;;;2.58;;
42682;SDS011;28293;50.930;3.464;2022-10-16T16:25:22;5.90;;;2.90;;
42682;SDS011;28293;50.930;3.464;2022-10-16T16:27:48;7.57;;;2.72;;
42682;SDS011;28293;50.930;3.464;2022-10-16T16:30:14;8.23;;;2.67;;
42682;SDS011;28293;50.930;3.464;2022-10-16T16:32:40;5.00;;;2.40;;
42682;SDS011;28293;50.930;3.464;2022-10-16T16:35:05;7.35;;;2.60;;
42682;SDS011;28293;50.930;3.464;2022-10-16T16:37:31;8.80;;;2.50;;
42682;SDS011;28293;50.930;3.464;2022-10-16T16:39:57;6.43;;;2.47;;
42682;SDS011;28293;50.930;3.464;2022-10-16T16:42:25;9.18;;;3.05;;
42682;SDS011;28293;50.930;3.464;2022-10-16T16:44:52;8.98;;;4.32;;
42682;SDS011;28293;50.930;3.464;2022-10-16T16:47:17;11.35;;;5.97;;
42682;SDS011;28293;50.930;3.464;2022-10-16T16:49:43;11.10;;;7.20;;
42682;SDS011;28293;50.930;3.464;2022-10-16T16:52:09;10.60;;;7.28;;
42682;SDS011;28293;50.930;3.464;2022-10-16T16:54:35;12.80;;;5.88;;
42682;SDS011;28293;50.930;3.464;2022-10-16T16:57:00;7.70;;;3.88;;
42682;SDS011;28293;50.930;3.464;2022-10-16T16:59:26;7.43;;;3.15;;
42682;SDS011;28293;50.930;3.464;2022-10-16T17:01:52;10.32;;;3.50;;
42682;SDS011;28293;50.930;3.464;2022-10-16T17:04:17;9.63;;;4.85;;
42682;SDS011;28293;50.930;3.464;2022-10-16T17:06:44;9.80;;;5.30;;
42682;SDS011;28293;50.930;3.464;2022-10-16T17:09:10;10.57;;;6.20;;
42682;SDS011;28293;50.930;3.464;2022-10-16T17:11:38;10.30;;;6.65;;
42682;SDS011;28293;50.930;3.464;2022-10-16T17:14:06;12.82;;;6.55;;
42682;SDS011;28293;50.930;3.464;2022-10-16T17:16:33;13.73;;;6.97;;
42682;SDS011;28293;50.930;3.464;2022-10-16T17:19:01;13.85;;;6.82;;
42682;SDS011;28293;50.930;3.464;2022-10-16T17:21:31;14.15;;;7.72;;
42682;SDS011;28293;50.930;3.464;2022-10-16T17:23:57;11.55;;;8.43;;
42682;SDS011;28293;50.930;3.464;2022-10-16T17:26:23;15.23;;;8.07;;
42682;SDS011;28293;50.930;3.464;2022-10-16T17:28:50;13.13;;;7.60;;
42682;SDS011;28293;50.930;3.464;2022-10-16T17:31:21;15.32;;;6.70;;
42682;SDS011;28293;50.930;3.464;2022-10-16T17:33:49;10.23;;;5.40;;
42682;SDS011;28293;50.930;3.464;2022-10-16T17:36:15;9.13;;;4.90;;
42682;SDS011;28293;50.930;3.464;2022-10-16T17:38:43;10.60;;;5.53;;
42682;SDS011;28293;50.930;3.464;2022-10-16T17:41:09;12.68;;;6.65;;
42682;SDS011;28293;50.930;3.464;2022-10-16T17:43:46;11.95;;;6.88;;
42682;SDS011;28293;50.930;3.464;2022-10-16T17:46:12;12.40;;;7.95;;
42682;SDS011;28293;50.930;3.464;2022-10-16T17:48:40;9.38;;;5.65;;
42682;SDS011;28293;50.930;3.464;2022-10-16T17:51:08;9.18;;;5.13;;
42682;SDS011;28293;50.930;3.464;2022-10-16T17:53:35;11.95;;;7.47;;
42682;SDS011;28293;50.930;3.464;2022-10-16T17:56:05;11.95;;;6.82;;
42682;SDS011;28293;50.930;3.464;2022-10-16T17:58:32;10.27;;;6.40;;
42682;SDS011;28293;50.930;3.464;2022-10-16T18:00:57;9.82;;;5.97;;
42682;SDS011;28293;50.930;3.464;2022-10-16T18:03:23;9.45;;;5.57;;
42682;SDS011;28293;50.930;3.464;2022-10-16T18:05:51;11.38;;;6.43;;
42682;SDS011;28293;50.930;3.464;2022-10-16T18:08:17;8.63;;;5.40;;
42682;SDS011;28293;50.930;3.464;2022-10-16T18:10:47;10.38;;;5.85;;
42682;SDS011;28293;50.930;3.464;2022-10-16T18:13:13;10.95;;;6.15;;
42682;SDS011;28293;50.930;3.464;2022-10-16T18:15:40;9.40;;;6.15;;
42682;SDS011;28293;50.930;3.464;2022-10-16T18:18:06;15.48;;;10.57;;
42682;SDS011;28293;50.930;3.464;2022-10-16T18:20:31;9.30;;;7.70;;
42682;SDS011;28293;50.930;3.464;2022-10-16T18:22:58;10.55;;;7.00;;
42682;SDS011;28293;50.930;3.464;2022-10-16T18:25:23;11.45;;;7.30;;
42682;SDS011;28293;50.930;3.464;2022-10-16T18:27:49;11.82;;;6.75;;
42682;SDS011;28293;50.930;3.464;2022-10-16T18:30:15;10.50;;;5.82;;
42682;SDS011;28293;50.930;3.464;2022-10-16T18:32:40;8.68;;;5.57;;
42682;SDS011;28293;50.930;3.464;2022-10-16T18:35:06;7.57;;;4.85;;
42682;SDS011;28293;50.930;3.464;2022-10-16T18:37:33;8.35;;;4.88;;
42682;SDS011;28293;50.930;3.464;2022-10-16T18:40:00;7.68;;;4.90;;
42682;SDS011;28293;50.930;3.464;2022-10-16T18:42:26;8.73;;;5.65;;
42682;SDS011;28293;50.930;3.464;2022-10-16T18:44:52;10.82;;;5.47;;
42682;SDS011;28293;50.930;3.464;2022-10-16T18:47:17;8.88;;;5.53;;
42682;SDS011;28293;50.930;3.464;2022-10-16T18:49:43;8.57;;;5.05;;
42682;SDS011;28293;50.930;3.464;2022-10-16T18:52:10;8.48;;;5.10;;
42682;SDS011;28293;50.930;3.464;2022-10-16T18:54:36;9.45;;;5.35;;
42682;SDS011;28293;50.930;3.464;2022-10-16T18:57:02;9.80;;;5.55;;
42682;SDS011;28293;50.930;3.464;2022-10-16T18:59:28;9.82;;;5.57;;
42682;SDS011;28293;50.930;3.464;2022-10-16T19:01:54;9.43;;;5.50;;
42682;SDS011;28293;50.930;3.464;2022-10-16T19:04:19;8.25;;;5.13;;
42682;SDS011;28293;50.930;3.464;2022-10-16T19:06:47;8.52;;;5.38;;
42682;SDS011;28293;50.930;3.464;2022-10-16T19:09:16;11.13;;;6.40;;
42682;SDS011;28293;50.930;3.464;2022-10-16T19:11:43;12.15;;;7.03;;
42682;SDS011;28293;50.930;3.464;2022-10-16T19:14:09;9.27;;;6.05;;
42682;SDS011;28293;50.930;3.464;2022-10-16T19:16:35;9.60;;;6.18;;
42682;SDS011;28293;50.930;3.464;2022-10-16T19:19:04;8.85;;;5.97;;
42682;SDS011;28293;50.930;3.464;2022-10-16T19:21:33;10.23;;;5.43;;
42682;SDS011;28293;50.930;3.464;2022-10-16T19:24:00;10.32;;;5.60;;
42682;SDS011;28293;50.930;3.464;2022-10-16T19:26:27;7.45;;;4.75;;
42682;SDS011;28293;50.930;3.464;2022-10-16T19:28:54;8.15;;;5.13;;
42682;SDS011;28293;50.930;3.464;2022-10-16T19:31:22;8.73;;;5.05;;
42682;SDS011;28293;50.930;3.464;2022-10-16T19:33:51;7.68;;;4.55;;
42682;SDS011;28293;50.930;3.464;2022-10-16T19:36:22;8.20;;;4.93;;
42682;SDS011;28293;50.930;3.464;2022-10-16T19:39:06;8.73;;;5.18;;
42682;SDS011;28293;50.930;3.464;2022-10-16T19:41:35;9.07;;;4.70;;
42682;SDS011;28293;50.930;3.464;2022-10-16T19:44:01;9.07;;;4.85;;
42682;SDS011;28293;50.930;3.464;2022-10-16T19:46:29;10.15;;;4.53;;
42682;SDS011;28293;50.930;3.464;2022-10-16T19:48:56;7.18;;;4.38;;
42682;SDS011;28293;50.930;3.464;2022-10-16T19:51:24;9.27;;;4.65;;
42682;SDS011;28293;50.930;3.464;2022-10-16T19:53:57;10.63;;;4.68;;
42682;SDS011;28293;50.930;3.464;2022-10-16T19:56:29;8.85;;;4.80;;
42682;SDS011;28293;50.930;3.464;2022-10-16T19:58:56;8.32;;;5.10;;
42682;SDS011;28293;50.930;3.464;2022-10-16T20:01:23;8.13;;;4.68;;
42682;SDS011;28293;50.930;3.464;2022-10-16T20:03:50;7.45;;;4.35;;
42682;SDS011;28293;50.930;3.464;2022-10-16T20:06:16;10.32;;;5.38;;
42682;SDS011;28293;50.930;3.464;2022-10-16T20:08:43;9.10;;;4.63;;
42682;SDS011;28293;50.930;3.464;2022-10-16T20:11:12;10.05;;;5.30;;
42682;SDS011;28293;50.930;3.464;2022-10-16T20:13:40;8.30;;;5.18;;
42682;SDS011;28293;50.930;3.464;2022-10-16T20:16:06;9.02;;;5.60;;
42682;SDS011;28293;50.930;3.464;2022-10-16T20:18:32;8.93;;;5.18;;
42682;SDS011;28293;50.930;3.464;2022-10-16T20:20:58;11.65;;;5.28;;
42682;SDS011;28293;50.930;3.464;2022-10-16T20:23:24;9.68;;;4.90;;
42682;SDS011;28293;50.930;3.464;2022-10-16T20:25:49;8.00;;;4.85;;
42682;SDS011;28293;50.930;3.464;2022-10-16T20:28:17;7.43;;;4.43;;
42682;SDS011;28293;50.930;3.464;2022-10-16T20:30:45;10.10;;;5.00;;
42682;SDS011;28293;50.930;3.464;2022-10-16T20:33:12;9.27;;;4.65;;
42682;SDS011;28293;50.930;3.464;2022-10-16T20:35:39;8.60;;;5.10;;
42682;SDS011;28293;50.930;3.464;2022-10-16T20:38:07;6.20;;;4.40;;
42682;SDS011;28293;50.930;3.464;2022-10-16T20:40:33;7.95;;;4.68;;
42682;SDS011;28293;50.930;3.464;2022-10-16T20:43:03;8.00;;;4.70;;
42682;SDS011;28293;50.930;3.464;2022-10-16T20:45:30;7.03;;;4.40;;
42682;SDS011;28293;50.930;3.464;2022-10-16T20:47:56;9.70;;;4.60;;
42682;SDS011;28293;50.930;3.464;2022-10-16T20:50:22;7.95;;;4.40;;
42682;SDS011;28293;50.930;3.464;2022-10-16T20:52:48;11.00;;;4.97;;
42682;SDS011;28293;50.930;3.464;2022-10-16T20:55:14;9.95;;;5.18;;
42682;SDS011;28293;50.930;3.464;2022-10-16T20:57:42;6.88;;;4.60;;
42682;SDS011;28293;50.930;3.464;2022-10-16T21:00:08;9.13;;;5.22;;
42682;SDS011;28293;50.930;3.464;2022-10-16T21:02:34;7.97;;;4.97;;
42682;SDS011;28293;50.930;3.464;2022-10-16T21:05:00;9.43;;;5.43;;
42682;SDS011;28293;50.930;3.464;2022-10-16T21:07:26;7.63;;;5.00;;
42682;SDS011;28293;50.930;3.464;2022-10-16T21:09:55;9.50;;;5.28;;
42682;SDS011;28293;50.930;3.464;2022-10-16T21:12:23;9.32;;;5.40;;
42682;SDS011;28293;50.930;3.464;2022-10-16T21:14:49;9.27;;;5.20;;
42682;SDS011;28293;50.930;3.464;2022-10-16T21:17:15;7.50;;;5.22;;
42682;SDS011;28293;50.930;3.464;2022-10-16T21:19:41;8.18;;;5.30;;
42682;SDS011;28293;50.930;3.464;2022-10-16T21:22:07;8.85;;;5.55;;
42682;SDS011;28293;50.930;3.464;2022-10-16T21:24:33;10.88;;;5.60;;
42682;SDS011;28293;50.930;3.464;2022-10-16T21:27:00;9.95;;;5.53;;
42682;SDS011;28293;50.930;3.464;2022-10-16T21:29:26;8.50;;;5.40;;
42682;SDS011;28293;50.930;3.464;2022-10-16T21:31:51;9.27;;;5.80;;
42682;SDS011;28293;50.930;3.464;2022-10-16T21:34:17;9.40;;;5.93;;
42682;SDS011;28293;50.930;3.464;2022-10-16T21:36:43;8.95;;;5.90;;
42682;SDS011;28293;50.930;3.464;2022-10-16T21:39:12;8.18;;;5.70;;
42682;SDS011;28293;50.930;3.464;2022-10-16T21:41:41;9.57;;;5.70;;
42682;SDS011;28293;50.930;3.464;2022-10-16T21:44:09;11.30;;;6.93;;
42682;SDS011;28293;50.930;3.464;2022-10-16T21:46:35;9.00;;;5.88;;
42682;SDS011;28293;50.930;3.464;2022-10-16T21:49:04;9.80;;;6.85;;
42682;SDS011;28293;50.930;3.464;2022-10-16T21:51:31;8.02;;;5.82;;
42682;SDS011;28293;50.930;3.464;2022-10-16T21:54:02;8.55;;;6.18;;
42682;SDS011;28293;50.930;3.464;2022-10-16T21:56:29;9.32;;;5.97;;
42682;SDS011;28293;50.930;3.464;2022-10-16T21:58:55;9.05;;;6.53;;
42682;SDS011;28293;50.930;3.464;2022-10-16T22:01:22;9.57;;;6.15;;
42682;SDS011;28293;50.930;3.464;2022-10-16T22:03:49;9.80;;;6.47;;
42682;SDS011;28293;50.930;3.464;2022-10-16T22:06:16;10.48;;;6.50;;
42682;SDS011;28293;50.930;3.464;2022-10-16T22:08:44;10.15;;;6.72;;
42682;SDS011;28293;50.930;3.464;2022-10-16T22:11:14;10.27;;;6.80;;
42682;SDS011;28293;50.930;3.464;2022-10-16T22:13:51;9.20;;;6.03;;
42682;SDS011;28293;50.930;3.464;2022-10-16T22:16:24;9.05;;;6.00;;
42682;SDS011;28293;50.930;3.464;2022-10-16T22:18:51;10.67;;;6.70;;
42682;SDS011;28293;50.930;3.464;2022-10-16T22:21:18;9.15;;;6.63;;
42682;SDS011;28293;50.930;3.464;2022-10-16T22:23:43;9.35;;;6.88;;
42682;SDS011;28293;50.930;3.464;2022-10-16T22:26:09;13.13;;;6.90;;
42682;SDS011;28293;50.930;3.464;2022-10-16T22:28:36;10.32;;;6.55;;
42682;SDS011;28293;50.930;3.464;2022-10-16T22:31:04;11.70;;;7.72;;
42682;SDS011;28293;50.930;3.464;2022-10-16T22:33:31;10.88;;;6.72;;
42682;SDS011;28293;50.930;3.464;2022-10-16T22:36:00;10.35;;;7.43;;
42682;SDS011;28293;50.930;3.464;2022-10-16T22:38:32;9.57;;;6.85;;
42682;SDS011;28293;50.930;3.464;2022-10-16T22:41:02;10.73;;;7.20;;
42682;SDS011;28293;50.930;3.464;2022-10-16T22:43:29;9.55;;;6.88;;
42682;SDS011;28293;50.930;3.464;2022-10-16T22:45:54;10.07;;;7.10;;
42682;SDS011;28293;50.930;3.464;2022-10-16T22:48:25;9.70;;;7.50;;
42682;SDS011;28293;50.930;3.464;2022-10-16T22:50:50;10.02;;;7.68;;
42682;SDS011;28293;50.930;3.464;2022-10-16T22:53:16;9.57;;;7.57;;
42682;SDS011;28293;50.930;3.464;2022-10-16T22:55:41;12.95;;;8.00;;
42682;SDS011;28293;50.930;3.464;2022-10-16T22:58:08;9.25;;;7.47;;
42682;SDS011;28293;50.930;3.464;2022-10-16T23:00:34;13.05;;;7.72;;
42682;SDS011;28293;50.930;3.464;2022-10-16T23:02:59;10.38;;;7.40;;
42682;SDS011;28293;50.930;3.464;2022-10-16T23:05:25;11.30;;;7.82;;
42682;SDS011;28293;50.930;3.464;2022-10-16T23:07:51;9.55;;;7.43;;
42682;SDS011;28293;50.930;3.464;2022-10-16T23:10:16;12.80;;;8.50;;
42682;SDS011;28293;50.930;3.464;2022-10-16T23:12:43;10.43;;;7.95;;
42682;SDS011;28293;50.930;3.464;2022-10-16T23:15:10;12.73;;;8.40;;
42682;SDS011;28293;50.930;3.464;2022-10-16T23:17:36;11.43;;;8.23;;
42682;SDS011;28293;50.930;3.464;2022-10-16T23:20:02;9.90;;;8.07;;
42682;SDS011;28293;50.930;3.464;2022-10-16T23:22:28;10.63;;;8.82;;
42682;SDS011;28293;50.930;3.464;2022-10-16T23:24:53;11.55;;;8.88;;
42682;SDS011;28293;50.930;3.464;2022-10-16T23:27:19;11.05;;;8.65;;
42682;SDS011;28293;50.930;3.464;2022-10-16T23:29:45;10.32;;;8.98;;
42682;SDS011;28293;50.930;3.464;2022-10-16T23:32:10;12.50;;;9.45;;
42682;SDS011;28293;50.930;3.464;2022-10-16T23:34:36;12.85;;;9.48;;
42682;SDS011;28293;50.930;3.464;2022-10-16T23:37:02;11.65;;;9.35;;
42682;SDS011;28293;50.930;3.464;2022-10-16T23:39:27;12.85;;;8.93;;
42682;SDS011;28293;50.930;3.464;2022-10-16T23:41:53;14.77;;;9.25;;
42682;SDS011;28293;50.930;3.464;2022-10-16T23:44:19;11.82;;;8.50;;
42682;SDS011;28293;50.930;3.464;2022-10-16T23:46:44;11.18;;;9.00;;
42682;SDS011;28293;50.930;3.464;2022-10-16T23:49:10;13.18;;;9.63;;
42682;SDS011;28293;50.930;3.464;2022-10-16T23:51:36;12.93;;;8.82;;
42682;SDS011;28293;50.930;3.464;2022-10-16T23:54:01;11.63;;;9.07;;
42682;SDS011;28293;50.930;3.464;2022-10-16T23:56:27;10.98;;;8.68;;
42682;SDS011;28293;50.930;3.464;2022-10-16T23:58:52;13.50;;;9.07;;
